AAL142 KJFK-EGLL
Flight info
| Callsign | AAL142 |
|---|---|
| Flight time | 6h 12m |
| Altitude | 35000 |
| Route | DCT MERIT DCT HFD DCT PUT DCT WITCH DCT ALLEX N535B UMESI/M084F360 DCT 5130N05000W 5330N04000W 5430N03000W 5430N02000W DCT NEBIN DCT OLGON/N0486F370 DCT ENJEX DCT AVZAC DCT INFEC DCT JETZI DCT AMFUL DCT ORZEB/N0454F230 P2 SIRIC SIRIC1H |
| Aircraft | B77W/H-SDE1E2E3FGHIJ2J3J4J5M1RWXY/LB1D1 |
Departure
| Time | 2026-05-09 13:09 |
|---|---|
| Airport | John F. Kennedy International Airport (KJFK) |
Arrival
| Time | 2026-05-09 19:22 |
|---|---|
| Airport | London Heathrow Airport (EGLL) |
| Time | Latitude | Longitude | Altitude | Speed | Heading |
|---|---|---|---|---|---|
| 2026-05-09 12:42 | 40.64777 | -73.79345 | 20 ft | 0 kts | 151° |
| 2026-05-09 12:58 | 40.64783 | -73.79349 | 20 ft | 2 kts | 151° |
| 2026-05-09 12:58 | 40.64801 | -73.79362 | 24 ft | 3 kts | 151° |
| 2026-05-09 12:58 | 40.64818 | -73.79375 | 23 ft | 3 kts | 151° |
| 2026-05-09 12:59 | 40.64831 | -73.79385 | 22 ft | 3 kts | 127° |
| 2026-05-09 12:59 | 40.64836 | -73.79393 | 23 ft | 3 kts | 88° |
| 2026-05-09 12:59 | 40.64834 | -73.79408 | 26 ft | 2 kts | 61° |
| 2026-05-09 12:59 | 40.64828 | -73.79422 | 26 ft | 3 kts | 61° |
| 2026-05-09 13:00 | 40.64819 | -73.79444 | 25 ft | 2 kts | 61° |
| 2026-05-09 13:00 | 40.64817 | -73.79449 | 26 ft | 0 kts | 61° |
| 2026-05-09 13:01 | 40.64823 | -73.79434 | 25 ft | 6 kts | 61° |
| 2026-05-09 13:02 | 40.64853 | -73.79364 | 23 ft | 11 kts | 61° |
| 2026-05-09 13:02 | 40.64891 | -73.79275 | 20 ft | 11 kts | 60° |
| 2026-05-09 13:02 | 40.64930 | -73.79183 | 20 ft | 12 kts | 60° |
| 2026-05-09 13:02 | 40.64970 | -73.79090 | 22 ft | 12 kts | 60° |
| 2026-05-09 13:03 | 40.65009 | -73.78998 | 22 ft | 11 kts | 60° |
| 2026-05-09 13:03 | 40.65046 | -73.78930 | 20 ft | 1 kts | 37° |
| 2026-05-09 13:03 | 40.65048 | -73.78929 | 20 ft | 1 kts | 33° |
| 2026-05-09 13:03 | 40.65094 | -73.78916 | 20 ft | 13 kts | 8° |
| 2026-05-09 13:04 | 40.65134 | -73.78858 | 20 ft | 10 kts | 80° |
| 2026-05-09 13:04 | 40.65163 | -73.78715 | 20 ft | 19 kts | 65° |
| 2026-05-09 13:04 | 40.65217 | -73.78585 | 27 ft | 16 kts | 61° |
| 2026-05-09 13:04 | 40.65263 | -73.78432 | 21 ft | 18 kts | 83° |
| 2026-05-09 13:05 | 40.65225 | -73.78288 | 21 ft | 16 kts | 120° |
| 2026-05-09 13:05 | 40.65168 | -73.78162 | 21 ft | 16 kts | 121° |
| 2026-05-09 13:05 | 40.65110 | -73.78036 | 21 ft | 16 kts | 121° |
| 2026-05-09 13:05 | 40.65053 | -73.77910 | 21 ft | 16 kts | 121° |
| 2026-05-09 13:06 | 40.64996 | -73.77784 | 21 ft | 16 kts | 121° |
| 2026-05-09 13:06 | 40.64939 | -73.77658 | 20 ft | 16 kts | 120° |
| 2026-05-09 13:06 | 40.64882 | -73.77532 | 20 ft | 16 kts | 121° |
| 2026-05-09 13:06 | 40.64825 | -73.77408 | 21 ft | 16 kts | 120° |
| 2026-05-09 13:07 | 40.64769 | -73.77282 | 21 ft | 16 kts | 122° |
| 2026-05-09 13:07 | 40.64766 | -73.77182 | 23 ft | 11 kts | 58° |
| 2026-05-09 13:07 | 40.64769 | -73.77088 | 24 ft | 11 kts | 116° |
| 2026-05-09 13:07 | 40.64728 | -73.76991 | 24 ft | 13 kts | 120° |
| 2026-05-09 13:08 | 40.64677 | -73.76881 | 27 ft | 15 kts | 121° |
| 2026-05-09 13:08 | 40.64623 | -73.76763 | 25 ft | 15 kts | 121° |
| 2026-05-09 13:08 | 40.64568 | -73.76712 | 22 ft | 9 kts | 193° |
| 2026-05-09 13:08 | 40.64392 | -73.76849 | 22 ft | 64 kts | 211° |
| 2026-05-09 13:09 | 40.63764 | -73.77340 | 23 ft | 144 kts | 211° |
| 2026-05-09 13:09 | 40.62739 | -73.78131 | 286 ft | 181 kts | 209° |
| 2026-05-09 13:09 | 40.61655 | -73.78945 | 1293 ft | 173 kts | 211° |
| 2026-05-09 13:09 | 40.60645 | -73.79723 | 2221 ft | 168 kts | 209° |
| 2026-05-09 13:10 | 40.59435 | -73.79950 | 2591 ft | 189 kts | 172° |
| 2026-05-09 13:10 | 40.58268 | -73.79032 | 3020 ft | 219 kts | 140° |
| 2026-05-09 13:10 | 40.57481 | -73.77113 | 3189 ft | 263 kts | 107° |
| 2026-05-09 13:10 | 40.57508 | -73.74610 | 3771 ft | 286 kts | 77° |
| 2026-05-09 13:11 | 40.58410 | -73.72251 | 4582 ft | 293 kts | 53° |
| 2026-05-09 13:11 | 40.59716 | -73.70162 | 5324 ft | 298 kts | 49° |
| 2026-05-09 13:11 | 40.61109 | -73.68126 | 6110 ft | 302 kts | 48° |
| 2026-05-09 13:11 | 40.62544 | -73.66085 | 6909 ft | 304 kts | 47° |
| 2026-05-09 13:12 | 40.63989 | -73.64037 | 7662 ft | 308 kts | 47° |
| 2026-05-09 13:12 | 40.65462 | -73.61953 | 8368 ft | 313 kts | 47° |
| 2026-05-09 13:12 | 40.66958 | -73.59836 | 9103 ft | 317 kts | 47° |
| 2026-05-09 13:12 | 40.68469 | -73.57764 | 9781 ft | 319 kts | 40° |
| 2026-05-09 13:13 | 40.70350 | -73.56195 | 10279 ft | 325 kts | 23° |
| 2026-05-09 13:13 | 40.72462 | -73.54883 | 10507 ft | 347 kts | 22° |
| 2026-05-09 13:13 | 40.74742 | -73.53509 | 10708 ft | 372 kts | 22° |
| 2026-05-09 13:13 | 40.77173 | -73.52045 | 10938 ft | 394 kts | 22° |
| 2026-05-09 13:14 | 40.79702 | -73.50504 | 11591 ft | 405 kts | 22° |
| 2026-05-09 13:14 | 40.82277 | -73.48918 | 12438 ft | 411 kts | 22° |
| 2026-05-09 13:16 | 41.00993 | -73.37218 | 18349 ft | 444 kts | 20° |
| 2026-05-09 13:16 | 41.03805 | -73.35453 | 19045 ft | 450 kts | 19° |
| 2026-05-09 13:16 | 41.06644 | -73.33668 | 19750 ft | 454 kts | 19° |
| 2026-05-09 13:16 | 41.09488 | -73.31878 | 20436 ft | 459 kts | 19° |
| 2026-05-09 13:17 | 41.12391 | -73.30049 | 21105 ft | 464 kts | 19° |
| 2026-05-09 13:17 | 41.14148 | -73.28941 | 21510 ft | 467 kts | 19° |
| 2026-05-09 13:17 | 41.17106 | -73.27074 | 22183 ft | 472 kts | 19° |
| 2026-05-09 13:17 | 41.20106 | -73.25183 | 22532 ft | 485 kts | 19° |
| 2026-05-09 13:18 | 41.23180 | -73.23242 | 22983 ft | 493 kts | 19° |
| 2026-05-09 13:18 | 41.26276 | -73.21273 | 23832 ft | 490 kts | 18° |
| 2026-05-09 13:18 | 41.29343 | -73.19321 | 24731 ft | 484 kts | 18° |
| 2026-05-09 13:18 | 41.32366 | -73.17400 | 25636 ft | 479 kts | 18° |
| 2026-05-09 13:19 | 41.35320 | -73.15337 | 26386 ft | 484 kts | 25° |
| 2026-05-09 13:19 | 41.38003 | -73.12556 | 27100 ft | 495 kts | 37° |
| 2026-05-09 13:19 | 41.40318 | -73.09133 | 27871 ft | 501 kts | 48° |
| 2026-05-09 13:19 | 41.42170 | -73.05258 | 28627 ft | 503 kts | 55° |
| 2026-05-09 13:20 | 41.43907 | -73.01208 | 29345 ft | 503 kts | 56° |
| 2026-05-09 13:20 | 41.45617 | -72.97154 | 30081 ft | 502 kts | 56° |
| 2026-05-09 13:20 | 41.47335 | -72.93112 | 30716 ft | 500 kts | 55° |
| 2026-05-09 13:20 | 41.49063 | -72.89099 | 31343 ft | 497 kts | 54° |
| 2026-05-09 13:21 | 41.50794 | -72.85127 | 31975 ft | 494 kts | 54° |
| 2026-05-09 13:21 | 41.52527 | -72.81175 | 32549 ft | 493 kts | 53° |
| 2026-05-09 13:21 | 41.54260 | -72.77230 | 33096 ft | 492 kts | 53° |
| 2026-05-09 13:21 | 41.55988 | -72.73294 | 33668 ft | 490 kts | 53° |
| 2026-05-09 13:22 | 41.57701 | -72.69382 | 34181 ft | 488 kts | 53° |
| 2026-05-09 13:22 | 41.59414 | -72.65463 | 34526 ft | 489 kts | 54° |
| 2026-05-09 13:22 | 41.61136 | -72.61517 | 34787 ft | 493 kts | 54° |
| 2026-05-09 13:23 | 41.68146 | -72.45650 | 35004 ft | 492 kts | 53° |
| 2026-05-09 13:23 | 41.69898 | -72.41787 | 35016 ft | 491 kts | 53° |
| 2026-05-09 13:24 | 41.73440 | -72.33960 | 35033 ft | 493 kts | 53° |
| 2026-05-09 13:24 | 41.76986 | -72.26066 | 35031 ft | 494 kts | 53° |
| 2026-05-09 13:25 | 41.80516 | -72.18161 | 35026 ft | 493 kts | 53° |
| 2026-05-09 13:26 | 41.85798 | -72.06303 | 35025 ft | 493 kts | 53° |
| 2026-05-09 13:26 | 41.89305 | -71.98405 | 35031 ft | 493 kts | 53° |
| 2026-05-09 13:27 | 41.92794 | -71.90531 | 35036 ft | 494 kts | 53° |
| 2026-05-09 13:27 | 41.96678 | -71.83009 | 35046 ft | 485 kts | 42° |
| 2026-05-09 13:28 | 42.01330 | -71.76608 | 35047 ft | 476 kts | 35° |
| 2026-05-09 13:28 | 42.06134 | -71.70444 | 35046 ft | 476 kts | 35° |
| 2026-05-09 13:29 | 42.10910 | -71.64260 | 35045 ft | 476 kts | 36° |
| 2026-05-09 13:29 | 42.15663 | -71.58038 | 35051 ft | 476 kts | 36° |
| 2026-05-09 13:30 | 42.20410 | -71.51789 | 35059 ft | 476 kts | 36° |
| 2026-05-09 13:30 | 42.25116 | -71.45582 | 35063 ft | 477 kts | 36° |
| 2026-05-09 13:31 | 42.29856 | -71.39319 | 35052 ft | 476 kts | 36° |
| 2026-05-09 13:31 | 42.34551 | -71.33102 | 35043 ft | 476 kts | 36° |
| 2026-05-09 13:32 | 42.39274 | -71.26833 | 35041 ft | 475 kts | 36° |
| 2026-05-09 13:32 | 42.46341 | -71.17428 | 35047 ft | 474 kts | 36° |
| 2026-05-09 13:33 | 42.51019 | -71.11186 | 35045 ft | 474 kts | 36° |
| 2026-05-09 13:33 | 42.55717 | -71.04903 | 35060 ft | 474 kts | 35° |
| 2026-05-09 13:34 | 42.60414 | -70.98605 | 35058 ft | 474 kts | 35° |
| 2026-05-09 13:34 | 42.65080 | -70.92337 | 35059 ft | 473 kts | 35° |
| 2026-05-09 13:35 | 42.69514 | -70.85619 | 35057 ft | 484 kts | 46° |
| 2026-05-09 13:35 | 42.73249 | -70.77890 | 35064 ft | 490 kts | 50° |
| 2026-05-09 13:36 | 42.76283 | -70.71358 | 35062 ft | 491 kts | 50° |
| 2026-05-09 13:36 | 42.79847 | -70.63718 | 35038 ft | 490 kts | 49° |
| 2026-05-09 13:37 | 42.83521 | -70.55911 | 35040 ft | 489 kts | 49° |
| 2026-05-09 13:37 | 42.87199 | -70.48114 | 35046 ft | 489 kts | 49° |
| 2026-05-09 13:38 | 42.90258 | -70.41617 | 35049 ft | 490 kts | 49° |
| 2026-05-09 13:38 | 42.93936 | -70.33780 | 35055 ft | 490 kts | 49° |
| 2026-05-09 13:39 | 42.97610 | -70.25927 | 35053 ft | 490 kts | 49° |
| 2026-05-09 13:39 | 43.01276 | -70.18070 | 35058 ft | 490 kts | 49° |
| 2026-05-09 13:40 | 43.04942 | -70.10194 | 35060 ft | 491 kts | 49° |
| 2026-05-09 13:40 | 43.08597 | -70.02319 | 35058 ft | 491 kts | 49° |
| 2026-05-09 13:41 | 43.12233 | -69.94462 | 35056 ft | 490 kts | 49° |
| 2026-05-09 13:41 | 43.15882 | -69.86560 | 35069 ft | 491 kts | 50° |
| 2026-05-09 13:42 | 43.19529 | -69.78641 | 35065 ft | 492 kts | 50° |
| 2026-05-09 13:42 | 43.23180 | -69.70690 | 35065 ft | 493 kts | 50° |
| 2026-05-09 13:43 | 43.26828 | -69.62721 | 35060 ft | 492 kts | 50° |
| 2026-05-09 13:43 | 43.30438 | -69.54814 | 35064 ft | 491 kts | 50° |
| 2026-05-09 13:44 | 43.34069 | -69.46844 | 35066 ft | 491 kts | 50° |
| 2026-05-09 13:44 | 43.37691 | -69.38872 | 35073 ft | 492 kts | 50° |
| 2026-05-09 13:45 | 43.41293 | -69.30923 | 35074 ft | 493 kts | 51° |
| 2026-05-09 13:45 | 43.44916 | -69.22902 | 35076 ft | 493 kts | 51° |
| 2026-05-09 13:46 | 43.48527 | -69.14886 | 35081 ft | 493 kts | 51° |
| 2026-05-09 13:46 | 43.52140 | -69.06844 | 35071 ft | 492 kts | 51° |
| 2026-05-09 13:47 | 43.55718 | -68.98855 | 35088 ft | 491 kts | 52° |
| 2026-05-09 13:47 | 43.59307 | -68.90825 | 35074 ft | 491 kts | 52° |
| 2026-05-09 13:48 | 43.62893 | -68.82779 | 35076 ft | 491 kts | 52° |
| 2026-05-09 13:48 | 43.66468 | -68.74734 | 35077 ft | 491 kts | 52° |
| 2026-05-09 13:49 | 43.70034 | -68.66686 | 35083 ft | 491 kts | 52° |
| 2026-05-09 13:49 | 43.73597 | -68.58623 | 35081 ft | 491 kts | 53° |
| 2026-05-09 13:50 | 43.77148 | -68.50565 | 35083 ft | 490 kts | 53° |
| 2026-05-09 13:50 | 43.80374 | -68.43223 | 35087 ft | 490 kts | 53° |
| 2026-05-09 13:51 | 43.83530 | -68.36027 | 35084 ft | 490 kts | 53° |
| 2026-05-09 13:51 | 43.87063 | -68.27945 | 35081 ft | 490 kts | 53° |
| 2026-05-09 13:52 | 43.90594 | -68.19847 | 35083 ft | 490 kts | 53° |
| 2026-05-09 13:52 | 43.94094 | -68.11798 | 35079 ft | 489 kts | 54° |
| 2026-05-09 13:53 | 43.97605 | -68.03701 | 35088 ft | 489 kts | 54° |
| 2026-05-09 13:53 | 44.01107 | -67.95601 | 35086 ft | 489 kts | 54° |
| 2026-05-09 13:54 | 44.04603 | -67.87494 | 35087 ft | 489 kts | 54° |
| 2026-05-09 13:54 | 44.08086 | -67.79392 | 35086 ft | 489 kts | 54° |
| 2026-05-09 13:55 | 44.11571 | -67.71263 | 35087 ft | 488 kts | 55° |
| 2026-05-09 13:55 | 44.15040 | -67.63147 | 35088 ft | 487 kts | 55° |
| 2026-05-09 13:56 | 44.18496 | -67.55039 | 35085 ft | 486 kts | 55° |
| 2026-05-09 13:56 | 44.21920 | -67.46986 | 35091 ft | 486 kts | 55° |
| 2026-05-09 13:57 | 44.25360 | -67.38870 | 35091 ft | 485 kts | 56° |
| 2026-05-09 13:57 | 44.28784 | -67.30770 | 35087 ft | 485 kts | 56° |
| 2026-05-09 13:58 | 44.32212 | -67.22637 | 35088 ft | 484 kts | 56° |
| 2026-05-09 13:58 | 44.35621 | -67.14524 | 35090 ft | 484 kts | 56° |
| 2026-05-09 13:59 | 44.39026 | -67.06402 | 35086 ft | 484 kts | 56° |
| 2026-05-09 13:59 | 44.42542 | -66.98405 | 35090 ft | 480 kts | 49° |
| 2026-05-09 14:00 | 44.45249 | -66.93539 | 35096 ft | 477 kts | 47° |
| 2026-05-09 14:00 | 44.50820 | -66.83906 | 35081 ft | 478 kts | 46° |
| 2026-05-09 14:01 | 44.54986 | -66.76647 | 35077 ft | 477 kts | 47° |
| 2026-05-09 14:01 | 44.59112 | -66.69376 | 35077 ft | 476 kts | 47° |
| 2026-05-09 14:02 | 44.63220 | -66.62096 | 35073 ft | 476 kts | 47° |
| 2026-05-09 14:02 | 44.67327 | -66.54798 | 35071 ft | 475 kts | 47° |
| 2026-05-09 14:03 | 44.71422 | -66.47505 | 35069 ft | 475 kts | 47° |
| 2026-05-09 14:03 | 44.75514 | -66.40200 | 35067 ft | 475 kts | 48° |
| 2026-05-09 14:04 | 44.79574 | -66.32936 | 35068 ft | 475 kts | 48° |
| 2026-05-09 14:04 | 44.83655 | -66.25614 | 35069 ft | 475 kts | 48° |
| 2026-05-09 14:05 | 44.87734 | -66.18277 | 35080 ft | 475 kts | 48° |
| 2026-05-09 14:05 | 44.91808 | -66.10931 | 35088 ft | 475 kts | 48° |
| 2026-05-09 14:06 | 44.95820 | -66.03678 | 35069 ft | 474 kts | 49° |
| 2026-05-09 14:06 | 44.99875 | -65.96328 | 35085 ft | 474 kts | 49° |
| 2026-05-09 14:07 | 45.03928 | -65.88963 | 35068 ft | 474 kts | 49° |
| 2026-05-09 14:07 | 45.07942 | -65.81648 | 35067 ft | 474 kts | 49° |
| 2026-05-09 14:08 | 45.11984 | -65.74265 | 35068 ft | 474 kts | 49° |
| 2026-05-09 14:08 | 45.16018 | -65.66878 | 35062 ft | 474 kts | 49° |
| 2026-05-09 14:09 | 45.20054 | -65.59468 | 35064 ft | 475 kts | 49° |
| 2026-05-09 14:09 | 45.24083 | -65.52050 | 35054 ft | 474 kts | 49° |
| 2026-05-09 14:10 | 45.30109 | -65.40920 | 35057 ft | 474 kts | 50° |
| 2026-05-09 14:11 | 45.34123 | -65.33483 | 35059 ft | 474 kts | 50° |
| 2026-05-09 14:11 | 45.38136 | -65.26026 | 35055 ft | 474 kts | 50° |
| 2026-05-09 14:12 | 45.42116 | -65.18613 | 35055 ft | 474 kts | 50° |
| 2026-05-09 14:12 | 45.46117 | -65.11139 | 35055 ft | 474 kts | 50° |
| 2026-05-09 14:13 | 45.50108 | -65.03665 | 35054 ft | 474 kts | 50° |
| 2026-05-09 14:15 | 45.65986 | -64.73736 | 35050 ft | 473 kts | 50° |
| 2026-05-09 14:15 | 45.69943 | -64.66228 | 35041 ft | 472 kts | 51° |
| 2026-05-09 14:16 | 45.73895 | -64.58708 | 35039 ft | 472 kts | 51° |
| 2026-05-09 14:16 | 45.77848 | -64.51168 | 35031 ft | 473 kts | 51° |
| 2026-05-09 14:17 | 45.81768 | -64.43671 | 35026 ft | 473 kts | 51° |
| 2026-05-09 14:17 | 45.85703 | -64.36123 | 35022 ft | 472 kts | 51° |
| 2026-05-09 14:18 | 45.89629 | -64.28574 | 35018 ft | 472 kts | 51° |
| 2026-05-09 14:18 | 45.93552 | -64.21009 | 35017 ft | 472 kts | 51° |
| 2026-05-09 14:19 | 45.97472 | -64.13430 | 35016 ft | 472 kts | 51° |
| 2026-05-09 14:19 | 46.01393 | -64.05829 | 35018 ft | 472 kts | 51° |
| 2026-05-09 14:20 | 46.05280 | -63.98274 | 35022 ft | 472 kts | 51° |
| 2026-05-09 14:20 | 46.09195 | -63.90644 | 35022 ft | 472 kts | 51° |
| 2026-05-09 14:21 | 46.15038 | -63.79216 | 35025 ft | 472 kts | 52° |
| 2026-05-09 14:21 | 46.18929 | -63.71581 | 35033 ft | 472 kts | 52° |
| 2026-05-09 14:22 | 46.22786 | -63.63992 | 35033 ft | 472 kts | 52° |
| 2026-05-09 14:22 | 46.26671 | -63.56327 | 35032 ft | 472 kts | 52° |
| 2026-05-09 14:23 | 46.30544 | -63.48663 | 35034 ft | 472 kts | 52° |
| 2026-05-09 14:23 | 46.34413 | -63.40988 | 35036 ft | 472 kts | 52° |
| 2026-05-09 14:24 | 46.38282 | -63.33292 | 35024 ft | 472 kts | 52° |
| 2026-05-09 14:24 | 46.42142 | -63.25590 | 35040 ft | 472 kts | 52° |
| 2026-05-09 14:25 | 46.45996 | -63.17881 | 35032 ft | 472 kts | 52° |
| 2026-05-09 14:25 | 46.49844 | -63.10164 | 35029 ft | 472 kts | 52° |
| 2026-05-09 14:26 | 46.53658 | -63.02491 | 35049 ft | 472 kts | 52° |
| 2026-05-09 14:26 | 46.57493 | -62.94757 | 35034 ft | 471 kts | 52° |
| 2026-05-09 14:27 | 46.60698 | -62.88275 | 35036 ft | 471 kts | 53° |
| 2026-05-09 14:27 | 46.64516 | -62.80536 | 35038 ft | 471 kts | 53° |
| 2026-05-09 14:28 | 46.68310 | -62.72823 | 35043 ft | 471 kts | 53° |
| 2026-05-09 14:28 | 46.72120 | -62.65057 | 35041 ft | 471 kts | 53° |
| 2026-05-09 14:29 | 46.75916 | -62.57297 | 35040 ft | 470 kts | 53° |
| 2026-05-09 14:29 | 46.79715 | -62.49509 | 35046 ft | 471 kts | 53° |
| 2026-05-09 14:30 | 46.83512 | -62.41704 | 35050 ft | 471 kts | 53° |
| 2026-05-09 14:30 | 46.87274 | -62.33947 | 35044 ft | 470 kts | 53° |
| 2026-05-09 14:31 | 46.91051 | -62.26140 | 35047 ft | 470 kts | 53° |
| 2026-05-09 14:31 | 46.94828 | -62.18310 | 35051 ft | 470 kts | 53° |
| 2026-05-09 14:32 | 46.98598 | -62.10472 | 35050 ft | 470 kts | 54° |
| 2026-05-09 14:32 | 47.02365 | -62.02618 | 35055 ft | 470 kts | 54° |
| 2026-05-09 14:33 | 47.06095 | -61.94819 | 35051 ft | 471 kts | 54° |
| 2026-05-09 14:33 | 47.09853 | -61.86940 | 35040 ft | 470 kts | 54° |
| 2026-05-09 14:34 | 47.13597 | -61.79067 | 35031 ft | 470 kts | 54° |
| 2026-05-09 14:34 | 47.17342 | -61.71171 | 35027 ft | 471 kts | 54° |
| 2026-05-09 14:35 | 47.21084 | -61.63258 | 35022 ft | 471 kts | 54° |
| 2026-05-09 14:35 | 47.24794 | -61.55388 | 35019 ft | 470 kts | 55° |
| 2026-05-09 14:36 | 47.28521 | -61.47462 | 35023 ft | 470 kts | 55° |
| 2026-05-09 14:36 | 47.32243 | -61.39524 | 35026 ft | 471 kts | 55° |
| 2026-05-09 14:37 | 47.35966 | -61.31559 | 35031 ft | 471 kts | 55° |
| 2026-05-09 14:37 | 47.39682 | -61.23586 | 35037 ft | 471 kts | 55° |
| 2026-05-09 14:38 | 47.43391 | -61.15608 | 35040 ft | 471 kts | 56° |
| 2026-05-09 14:38 | 47.47093 | -61.07619 | 35041 ft | 471 kts | 56° |
| 2026-05-09 14:39 | 47.50793 | -60.99612 | 35050 ft | 471 kts | 56° |
| 2026-05-09 14:39 | 47.54488 | -60.91592 | 35044 ft | 472 kts | 56° |
| 2026-05-09 14:40 | 47.58154 | -60.83612 | 35041 ft | 471 kts | 56° |
| 2026-05-09 14:40 | 47.61839 | -60.75566 | 35042 ft | 471 kts | 56° |
| 2026-05-09 14:41 | 47.65520 | -60.67506 | 35041 ft | 472 kts | 56° |
| 2026-05-09 14:41 | 47.69200 | -60.59425 | 35039 ft | 472 kts | 57° |
| 2026-05-09 14:42 | 47.72864 | -60.51355 | 35037 ft | 471 kts | 57° |
| 2026-05-09 14:42 | 47.76507 | -60.43307 | 35034 ft | 472 kts | 57° |
| 2026-05-09 14:43 | 47.80174 | -60.35181 | 35035 ft | 473 kts | 57° |
| 2026-05-09 14:43 | 47.83840 | -60.27035 | 35032 ft | 473 kts | 57° |
| 2026-05-09 14:44 | 47.87498 | -60.18881 | 35033 ft | 473 kts | 57° |
| 2026-05-09 14:44 | 47.91147 | -60.10724 | 35033 ft | 473 kts | 57° |
| 2026-05-09 14:45 | 47.94774 | -60.02592 | 35029 ft | 474 kts | 57° |
| 2026-05-09 14:45 | 47.98420 | -59.94391 | 35030 ft | 474 kts | 57° |
| 2026-05-09 14:46 | 48.02060 | -59.86182 | 35029 ft | 474 kts | 58° |
| 2026-05-09 14:46 | 48.05704 | -59.77935 | 35030 ft | 475 kts | 58° |
| 2026-05-09 14:47 | 48.09339 | -59.69687 | 35027 ft | 474 kts | 58° |
| 2026-05-09 14:47 | 48.12965 | -59.61432 | 35027 ft | 474 kts | 58° |
| 2026-05-09 14:48 | 48.16587 | -59.53161 | 35028 ft | 474 kts | 58° |
| 2026-05-09 14:48 | 48.20182 | -59.44929 | 35028 ft | 475 kts | 58° |
| 2026-05-09 14:49 | 48.23791 | -59.36637 | 35019 ft | 475 kts | 58° |
| 2026-05-09 14:49 | 48.27401 | -59.28318 | 35023 ft | 475 kts | 59° |
| 2026-05-09 14:50 | 48.31006 | -59.19985 | 35019 ft | 475 kts | 59° |
| 2026-05-09 14:50 | 48.34585 | -59.11687 | 35021 ft | 475 kts | 59° |
| 2026-05-09 14:51 | 48.38180 | -59.03327 | 35018 ft | 475 kts | 59° |
| 2026-05-09 14:51 | 48.41745 | -58.95011 | 35015 ft | 475 kts | 59° |
| 2026-05-09 14:52 | 48.45329 | -58.86622 | 35016 ft | 476 kts | 59° |
| 2026-05-09 14:52 | 48.48918 | -58.78198 | 35015 ft | 476 kts | 59° |
| 2026-05-09 14:53 | 48.52468 | -58.69837 | 35008 ft | 476 kts | 59° |
| 2026-05-09 14:53 | 48.56033 | -58.61418 | 35020 ft | 476 kts | 60° |
| 2026-05-09 14:54 | 48.59595 | -58.52975 | 35008 ft | 476 kts | 60° |
| 2026-05-09 14:54 | 48.63157 | -58.44509 | 35003 ft | 476 kts | 60° |
| 2026-05-09 14:55 | 48.66703 | -58.36053 | 35001 ft | 476 kts | 60° |
| 2026-05-09 14:55 | 48.70248 | -58.27573 | 34994 ft | 477 kts | 60° |
| 2026-05-09 14:56 | 48.73794 | -58.19063 | 34974 ft | 477 kts | 60° |
| 2026-05-09 14:56 | 48.77324 | -58.10569 | 34981 ft | 476 kts | 60° |
| 2026-05-09 14:57 | 48.80822 | -58.02120 | 34975 ft | 476 kts | 61° |
| 2026-05-09 14:57 | 48.84342 | -57.93591 | 34974 ft | 477 kts | 61° |
| 2026-05-09 14:58 | 48.87859 | -57.85043 | 34965 ft | 476 kts | 61° |
| 2026-05-09 14:58 | 48.91364 | -57.76497 | 34960 ft | 476 kts | 61° |
| 2026-05-09 14:59 | 48.94864 | -57.67936 | 34957 ft | 476 kts | 62° |
| 2026-05-09 14:59 | 48.98356 | -57.59366 | 34948 ft | 476 kts | 62° |
| 2026-05-09 15:00 | 49.01822 | -57.50834 | 34950 ft | 476 kts | 62° |
| 2026-05-09 15:00 | 49.05304 | -57.42236 | 34936 ft | 477 kts | 62° |
| 2026-05-09 15:01 | 49.10506 | -57.29335 | 34946 ft | 476 kts | 62° |
| 2026-05-09 15:02 | 49.13971 | -57.20708 | 34940 ft | 476 kts | 62° |
| 2026-05-09 15:02 | 49.17422 | -57.12089 | 34939 ft | 476 kts | 62° |
| 2026-05-09 15:03 | 49.20870 | -57.03448 | 34937 ft | 476 kts | 63° |
| 2026-05-09 15:03 | 49.24314 | -56.94789 | 34933 ft | 476 kts | 63° |
| 2026-05-09 15:04 | 49.27744 | -56.86136 | 34934 ft | 475 kts | 63° |
| 2026-05-09 15:06 | 49.41438 | -56.51308 | 34936 ft | 476 kts | 64° |
| 2026-05-09 15:06 | 49.44841 | -56.42579 | 34946 ft | 477 kts | 64° |
| 2026-05-09 15:07 | 49.48226 | -56.33869 | 34953 ft | 478 kts | 64° |
| 2026-05-09 15:07 | 49.51631 | -56.25078 | 34945 ft | 478 kts | 64° |
| 2026-05-09 15:08 | 49.55024 | -56.16290 | 34952 ft | 477 kts | 64° |
| 2026-05-09 15:08 | 49.60099 | -56.03089 | 34959 ft | 477 kts | 65° |
| 2026-05-09 15:10 | 49.73567 | -55.67730 | 34972 ft | 478 kts | 65° |
| 2026-05-09 15:11 | 49.76922 | -55.58844 | 34971 ft | 478 kts | 66° |
| 2026-05-09 15:11 | 49.80272 | -55.49945 | 34970 ft | 479 kts | 66° |
| 2026-05-09 15:12 | 49.83590 | -55.41100 | 34971 ft | 478 kts | 66° |
| 2026-05-09 15:12 | 49.86930 | -55.32165 | 34969 ft | 478 kts | 66° |
| 2026-05-09 15:13 | 49.90257 | -55.23237 | 34968 ft | 478 kts | 66° |
| 2026-05-09 15:13 | 49.93582 | -55.14279 | 34969 ft | 478 kts | 67° |
| 2026-05-09 15:14 | 49.96335 | -55.06842 | 34967 ft | 478 kts | 67° |
| 2026-05-09 15:14 | 50.00179 | -54.96418 | 34972 ft | 478 kts | 67° |
| 2026-05-09 15:15 | 50.02940 | -54.88907 | 34968 ft | 478 kts | 67° |
| 2026-05-09 15:15 | 50.06766 | -54.78460 | 34966 ft | 477 kts | 68° |
| 2026-05-09 15:16 | 50.09518 | -54.70922 | 34960 ft | 478 kts | 68° |
| 2026-05-09 15:16 | 50.12770 | -54.61982 | 34959 ft | 478 kts | 68° |
| 2026-05-09 15:17 | 50.16044 | -54.52952 | 34956 ft | 478 kts | 68° |
| 2026-05-09 15:17 | 50.19309 | -54.43916 | 34960 ft | 478 kts | 69° |
| 2026-05-09 15:18 | 50.22564 | -54.34872 | 34947 ft | 478 kts | 69° |
| 2026-05-09 15:18 | 50.25818 | -54.25801 | 34941 ft | 479 kts | 69° |
| 2026-05-09 15:19 | 50.29069 | -54.16709 | 34937 ft | 479 kts | 69° |
| 2026-05-09 15:19 | 50.32313 | -54.07601 | 34931 ft | 479 kts | 70° |
| 2026-05-09 15:20 | 50.37160 | -53.93935 | 34923 ft | 479 kts | 70° |
| 2026-05-09 15:21 | 50.40387 | -53.84793 | 34919 ft | 479 kts | 70° |
| 2026-05-09 15:21 | 50.43593 | -53.75681 | 34908 ft | 480 kts | 71° |
| 2026-05-09 15:22 | 50.46809 | -53.66505 | 34917 ft | 480 kts | 71° |
| 2026-05-09 15:22 | 50.50019 | -53.57316 | 34911 ft | 480 kts | 71° |
| 2026-05-09 15:23 | 50.53219 | -53.48123 | 34900 ft | 479 kts | 72° |
| 2026-05-09 15:23 | 50.56414 | -53.38908 | 34893 ft | 479 kts | 72° |
| 2026-05-09 15:24 | 50.59600 | -53.29687 | 34888 ft | 479 kts | 72° |
| 2026-05-09 15:24 | 50.62775 | -53.20462 | 34885 ft | 479 kts | 72° |
| 2026-05-09 15:25 | 50.65918 | -53.11297 | 34877 ft | 479 kts | 73° |
| 2026-05-09 15:25 | 50.69081 | -53.02043 | 34873 ft | 479 kts | 73° |
| 2026-05-09 15:26 | 50.73805 | -52.88156 | 34865 ft | 479 kts | 73° |
| 2026-05-09 15:26 | 50.76944 | -52.78882 | 34860 ft | 479 kts | 74° |
| 2026-05-09 15:27 | 50.80077 | -52.69593 | 34849 ft | 479 kts | 75° |
| 2026-05-09 15:27 | 50.83198 | -52.60280 | 34847 ft | 477 kts | 76° |
| 2026-05-09 15:28 | 50.85875 | -52.50812 | 34849 ft | 469 kts | 81° |
| 2026-05-09 15:28 | 50.88386 | -52.41349 | 34833 ft | 469 kts | 81° |
| 2026-05-09 15:29 | 50.90911 | -52.31828 | 34823 ft | 469 kts | 81° |
| 2026-05-09 15:29 | 50.93025 | -52.23898 | 34818 ft | 469 kts | 81° |
| 2026-05-09 15:30 | 50.93653 | -52.21545 | 34821 ft | 469 kts | 81° |
| 2026-05-09 15:30 | 50.96188 | -52.12032 | 34814 ft | 469 kts | 81° |
| 2026-05-09 15:31 | 50.98725 | -52.02477 | 34804 ft | 469 kts | 82° |
| 2026-05-09 15:31 | 51.01236 | -51.92976 | 34812 ft | 469 kts | 82° |
| 2026-05-09 15:32 | 51.03750 | -51.83424 | 34800 ft | 468 kts | 82° |
| 2026-05-09 15:32 | 51.06257 | -51.73854 | 34794 ft | 468 kts | 82° |
| 2026-05-09 15:33 | 51.08754 | -51.64287 | 34790 ft | 468 kts | 82° |
| 2026-05-09 15:33 | 51.11244 | -51.54703 | 34786 ft | 468 kts | 82° |
| 2026-05-09 15:34 | 51.13708 | -51.45179 | 34786 ft | 468 kts | 82° |
| 2026-05-09 15:34 | 51.16180 | -51.35584 | 34782 ft | 468 kts | 82° |
| 2026-05-09 15:35 | 51.18645 | -51.25972 | 34777 ft | 468 kts | 81° |
| 2026-05-09 15:35 | 51.21104 | -51.16347 | 34774 ft | 469 kts | 81° |
| 2026-05-09 15:36 | 51.23560 | -51.06692 | 34772 ft | 469 kts | 81° |
| 2026-05-09 15:36 | 51.26009 | -50.97024 | 34774 ft | 470 kts | 81° |
| 2026-05-09 15:37 | 51.28450 | -50.87339 | 34780 ft | 470 kts | 81° |
| 2026-05-09 15:37 | 51.30888 | -50.77630 | 34773 ft | 471 kts | 81° |
| 2026-05-09 15:38 | 51.33321 | -50.67901 | 34770 ft | 471 kts | 81° |
| 2026-05-09 15:38 | 51.35745 | -50.58160 | 34773 ft | 472 kts | 81° |
| 2026-05-09 15:39 | 51.38146 | -50.48470 | 34774 ft | 472 kts | 82° |
| 2026-05-09 15:39 | 51.40561 | -50.38682 | 34769 ft | 472 kts | 81° |
| 2026-05-09 15:40 | 51.42967 | -50.28888 | 34769 ft | 472 kts | 81° |
| 2026-05-09 15:40 | 51.45364 | -50.19089 | 34770 ft | 472 kts | 81° |
| 2026-05-09 15:41 | 51.47753 | -50.09276 | 34772 ft | 471 kts | 81° |
| 2026-05-09 15:41 | 51.50132 | -49.99467 | 34775 ft | 471 kts | 81° |
| 2026-05-09 15:42 | 51.52568 | -49.89688 | 34771 ft | 472 kts | 80° |
| 2026-05-09 15:42 | 51.55042 | -49.79916 | 34778 ft | 472 kts | 80° |
| 2026-05-09 15:43 | 51.57506 | -49.70126 | 34778 ft | 471 kts | 80° |
| 2026-05-09 15:43 | 51.59946 | -49.60348 | 34783 ft | 471 kts | 80° |
| 2026-05-09 15:44 | 51.62370 | -49.50571 | 34784 ft | 470 kts | 80° |
| 2026-05-09 15:44 | 51.64784 | -49.40786 | 34789 ft | 470 kts | 80° |
| 2026-05-09 15:45 | 51.67176 | -49.31052 | 34787 ft | 470 kts | 80° |
| 2026-05-09 15:45 | 51.69568 | -49.21274 | 34787 ft | 469 kts | 80° |
| 2026-05-09 15:46 | 51.71955 | -49.11473 | 34794 ft | 469 kts | 80° |
| 2026-05-09 15:46 | 51.74333 | -49.01668 | 34807 ft | 469 kts | 80° |
| 2026-05-09 15:47 | 51.76704 | -48.91844 | 34801 ft | 469 kts | 80° |
| 2026-05-09 15:47 | 51.79048 | -48.82088 | 34799 ft | 469 kts | 80° |
| 2026-05-09 15:48 | 51.81404 | -48.72240 | 34801 ft | 470 kts | 80° |
| 2026-05-09 15:48 | 51.83752 | -48.62382 | 34805 ft | 470 kts | 80° |
| 2026-05-09 15:49 | 51.86092 | -48.52512 | 34809 ft | 470 kts | 80° |
| 2026-05-09 15:49 | 51.88426 | -48.42621 | 34816 ft | 471 kts | 80° |
| 2026-05-09 15:50 | 51.90757 | -48.32698 | 34821 ft | 471 kts | 80° |
| 2026-05-09 15:50 | 51.93066 | -48.22820 | 34818 ft | 472 kts | 80° |
| 2026-05-09 15:51 | 51.95389 | -48.12839 | 34831 ft | 473 kts | 80° |
| 2026-05-09 15:51 | 51.97702 | -48.02854 | 34835 ft | 473 kts | 80° |
| 2026-05-09 15:52 | 52.01161 | -47.87839 | 34833 ft | 473 kts | 80° |
| 2026-05-09 15:53 | 52.03458 | -47.77805 | 34839 ft | 474 kts | 80° |
| 2026-05-09 15:53 | 52.05752 | -47.67734 | 34850 ft | 474 kts | 80° |
| 2026-05-09 15:54 | 52.07649 | -47.59376 | 34851 ft | 474 kts | 80° |
| 2026-05-09 15:55 | 52.08394 | -47.56088 | 34850 ft | 474 kts | 80° |
| 2026-05-09 15:55 | 52.10666 | -47.46013 | 34853 ft | 473 kts | 80° |
| 2026-05-09 15:56 | 52.12926 | -47.35947 | 34856 ft | 472 kts | 80° |
| 2026-05-09 15:56 | 52.15174 | -47.25882 | 34859 ft | 472 kts | 80° |
| 2026-05-09 15:57 | 52.17396 | -47.15880 | 34870 ft | 473 kts | 79° |
| 2026-05-09 15:57 | 52.19628 | -47.05793 | 34877 ft | 473 kts | 79° |
| 2026-05-09 15:58 | 52.21849 | -46.95699 | 34882 ft | 473 kts | 79° |
| 2026-05-09 15:58 | 52.24064 | -46.85588 | 34890 ft | 474 kts | 79° |
| 2026-05-09 15:59 | 52.26275 | -46.75446 | 34893 ft | 474 kts | 79° |
| 2026-05-09 15:59 | 52.28477 | -46.65296 | 34892 ft | 474 kts | 79° |
| 2026-05-09 16:00 | 52.30671 | -46.55132 | 34903 ft | 474 kts | 79° |
| 2026-05-09 16:00 | 52.32859 | -46.44952 | 34919 ft | 474 kts | 79° |
| 2026-05-09 16:01 | 52.35030 | -46.34793 | 34912 ft | 473 kts | 79° |
| 2026-05-09 16:01 | 52.37189 | -46.24641 | 34922 ft | 472 kts | 79° |
| 2026-05-09 16:02 | 52.39326 | -46.14538 | 34929 ft | 472 kts | 79° |
| 2026-05-09 16:02 | 52.42168 | -46.01032 | 34936 ft | 470 kts | 79° |
| 2026-05-09 16:03 | 52.44285 | -45.90907 | 34945 ft | 469 kts | 79° |
| 2026-05-09 16:03 | 52.46391 | -45.80785 | 34952 ft | 468 kts | 79° |
| 2026-05-09 16:04 | 52.48482 | -45.70685 | 34950 ft | 467 kts | 79° |
| 2026-05-09 16:04 | 52.50562 | -45.60585 | 34958 ft | 466 kts | 78° |
| 2026-05-09 16:05 | 52.52633 | -45.50467 | 34972 ft | 467 kts | 79° |
| 2026-05-09 16:05 | 52.54682 | -45.40423 | 34983 ft | 466 kts | 78° |
| 2026-05-09 16:06 | 52.56734 | -45.30309 | 34989 ft | 466 kts | 78° |
| 2026-05-09 16:06 | 52.58775 | -45.20194 | 34991 ft | 466 kts | 78° |
| 2026-05-09 16:07 | 52.60809 | -45.10059 | 34995 ft | 466 kts | 78° |
| 2026-05-09 16:07 | 52.62821 | -44.99986 | 35004 ft | 466 kts | 78° |
| 2026-05-09 16:08 | 52.64839 | -44.89830 | 35010 ft | 466 kts | 78° |
| 2026-05-09 16:08 | 52.66845 | -44.79681 | 35022 ft | 466 kts | 78° |
| 2026-05-09 16:09 | 52.68844 | -44.69515 | 35024 ft | 466 kts | 78° |
| 2026-05-09 16:09 | 52.70513 | -44.60986 | 35026 ft | 466 kts | 78° |
| 2026-05-09 16:11 | 52.70708 | -44.59988 | 35034 ft | 466 kts | 78° |
| 2026-05-09 16:11 | 52.71742 | -44.54676 | 35038 ft | 466 kts | 78° |
| 2026-05-09 16:12 | 52.73722 | -44.44472 | 35042 ft | 467 kts | 78° |
| 2026-05-09 16:12 | 52.75695 | -44.34253 | 35047 ft | 467 kts | 78° |
| 2026-05-09 16:13 | 52.77659 | -44.24029 | 35053 ft | 466 kts | 78° |
| 2026-05-09 16:13 | 52.79609 | -44.13818 | 35071 ft | 466 kts | 78° |
| 2026-05-09 16:14 | 52.81537 | -44.03667 | 35062 ft | 465 kts | 78° |
| 2026-05-09 16:14 | 52.83470 | -43.93435 | 35075 ft | 465 kts | 77° |
| 2026-05-09 16:15 | 52.85388 | -43.83225 | 35088 ft | 465 kts | 77° |
| 2026-05-09 16:15 | 52.87297 | -43.73013 | 35091 ft | 464 kts | 77° |
| 2026-05-09 16:16 | 52.89193 | -43.62809 | 35099 ft | 463 kts | 77° |
| 2026-05-09 16:16 | 52.91069 | -43.52660 | 35105 ft | 463 kts | 77° |
| 2026-05-09 16:17 | 52.92944 | -43.42459 | 35112 ft | 462 kts | 77° |
| 2026-05-09 16:17 | 52.94809 | -43.32262 | 35127 ft | 462 kts | 77° |
| 2026-05-09 16:18 | 52.96651 | -43.22127 | 35128 ft | 461 kts | 77° |
| 2026-05-09 16:18 | 52.98492 | -43.11945 | 35139 ft | 461 kts | 77° |
| 2026-05-09 16:19 | 53.00324 | -43.01753 | 35147 ft | 461 kts | 76° |
| 2026-05-09 16:19 | 53.02159 | -42.91484 | 35645 ft | 463 kts | 76° |
| 2026-05-09 16:20 | 53.03069 | -42.86378 | 36229 ft | 458 kts | 76° |
| 2026-05-09 16:20 | 53.03968 | -42.81321 | 36795 ft | 455 kts | 76° |
| 2026-05-09 16:20 | 53.04860 | -42.76281 | 37148 ft | 455 kts | 76° |
| 2026-05-09 16:20 | 53.05757 | -42.71192 | 37156 ft | 463 kts | 76° |
| 2026-05-09 16:21 | 53.08840 | -42.53589 | 37314 ft | 483 kts | 76° |
| 2026-05-09 16:21 | 53.12659 | -42.31582 | 37287 ft | 505 kts | 76° |
| 2026-05-09 16:21 | 53.20437 | -41.85897 | 37195 ft | 512 kts | 76° |
| 2026-05-09 16:22 | 53.28028 | -41.40092 | 37266 ft | 515 kts | 76° |
| 2026-05-09 16:22 | 53.35475 | -40.93931 | 37291 ft | 514 kts | 75° |
| 2026-05-09 16:23 | 53.42700 | -40.47886 | 37291 ft | 509 kts | 75° |
| 2026-05-09 16:23 | 53.49756 | -40.01635 | 37339 ft | 511 kts | 75° |
| 2026-05-09 16:24 | 53.56379 | -39.55297 | 37371 ft | 509 kts | 76° |
| 2026-05-09 16:24 | 53.62800 | -39.08930 | 37384 ft | 503 kts | 75° |
| 2026-05-09 16:25 | 53.68988 | -38.62822 | 37402 ft | 500 kts | 76° |
| 2026-05-09 16:25 | 53.74962 | -38.16867 | 37438 ft | 497 kts | 76° |
| 2026-05-09 16:26 | 53.80703 | -37.71247 | 37472 ft | 496 kts | 76° |
| 2026-05-09 16:26 | 53.86230 | -37.25831 | 37490 ft | 490 kts | 76° |
| 2026-05-09 16:27 | 53.91556 | -36.80563 | 37495 ft | 489 kts | 76° |
| 2026-05-09 16:27 | 53.93943 | -36.59738 | 37525 ft | 488 kts | 75° |
| 2026-05-09 16:28 | 53.95225 | -36.48416 | 37514 ft | 488 kts | 75° |
| 2026-05-09 16:28 | 53.96495 | -36.37099 | 37529 ft | 487 kts | 75° |
| 2026-05-09 16:29 | 53.97755 | -36.25777 | 37529 ft | 487 kts | 75° |
| 2026-05-09 16:29 | 53.98994 | -36.14531 | 37537 ft | 486 kts | 75° |
| 2026-05-09 16:30 | 54.00228 | -36.03237 | 37532 ft | 486 kts | 75° |
| 2026-05-09 16:30 | 54.01452 | -35.91922 | 37550 ft | 485 kts | 75° |
| 2026-05-09 16:31 | 54.02661 | -35.80643 | 37541 ft | 484 kts | 75° |
| 2026-05-09 16:31 | 54.03860 | -35.69362 | 37552 ft | 484 kts | 75° |
| 2026-05-09 16:32 | 54.04846 | -35.59991 | 37553 ft | 484 kts | 75° |
| 2026-05-09 16:32 | 54.06221 | -35.46817 | 37562 ft | 483 kts | 75° |
| 2026-05-09 16:33 | 54.07375 | -35.35634 | 37553 ft | 482 kts | 75° |
| 2026-05-09 16:33 | 54.08526 | -35.24380 | 37570 ft | 482 kts | 74° |
| 2026-05-09 16:34 | 54.09666 | -35.13124 | 37562 ft | 482 kts | 74° |
| 2026-05-09 16:34 | 54.10793 | -35.01879 | 37575 ft | 481 kts | 74° |
| 2026-05-09 16:35 | 54.11911 | -34.90619 | 37575 ft | 481 kts | 74° |
| 2026-05-09 16:35 | 54.13016 | -34.79385 | 37585 ft | 481 kts | 74° |
| 2026-05-09 16:36 | 54.15193 | -34.56896 | 37586 ft | 480 kts | 74° |
| 2026-05-09 16:37 | 54.16264 | -34.45663 | 37583 ft | 480 kts | 74° |
| 2026-05-09 16:37 | 54.17325 | -34.34422 | 37594 ft | 479 kts | 74° |
| 2026-05-09 16:38 | 54.18374 | -34.23188 | 37584 ft | 479 kts | 74° |
| 2026-05-09 16:38 | 54.19412 | -34.11965 | 37600 ft | 479 kts | 74° |
| 2026-05-09 16:39 | 54.20439 | -34.00727 | 37590 ft | 479 kts | 74° |
| 2026-05-09 16:39 | 54.21449 | -33.89564 | 37604 ft | 478 kts | 74° |
| 2026-05-09 16:40 | 54.22455 | -33.78321 | 37594 ft | 478 kts | 74° |
| 2026-05-09 16:42 | 54.24807 | -33.51549 | 37593 ft | 478 kts | 74° |
| 2026-05-09 16:42 | 54.25771 | -33.40373 | 37607 ft | 478 kts | 74° |
| 2026-05-09 16:43 | 54.26731 | -33.29115 | 37608 ft | 479 kts | 74° |
| 2026-05-09 16:43 | 54.27681 | -33.17840 | 37615 ft | 479 kts | 74° |
| 2026-05-09 16:44 | 54.28621 | -33.06551 | 37610 ft | 479 kts | 74° |
| 2026-05-09 16:44 | 54.29551 | -32.95254 | 37624 ft | 479 kts | 74° |
| 2026-05-09 16:45 | 54.30471 | -32.83948 | 37617 ft | 479 kts | 75° |
| 2026-05-09 16:45 | 54.31376 | -32.72699 | 37620 ft | 480 kts | 75° |
| 2026-05-09 16:46 | 54.32276 | -32.61365 | 37614 ft | 480 kts | 75° |
| 2026-05-09 16:46 | 54.33165 | -32.50026 | 37628 ft | 480 kts | 75° |
| 2026-05-09 16:47 | 54.34044 | -32.38680 | 37624 ft | 480 kts | 75° |
| 2026-05-09 16:47 | 54.34913 | -32.27324 | 37635 ft | 480 kts | 75° |
| 2026-05-09 16:48 | 54.35770 | -32.15980 | 37626 ft | 479 kts | 75° |
| 2026-05-09 16:48 | 54.36609 | -32.04715 | 37635 ft | 479 kts | 76° |
| 2026-05-09 16:49 | 54.37444 | -31.93379 | 37629 ft | 479 kts | 76° |
| 2026-05-09 16:50 | 54.38676 | -31.76362 | 37637 ft | 478 kts | 76° |
| 2026-05-09 16:50 | 54.39484 | -31.65016 | 37633 ft | 478 kts | 76° |
| 2026-05-09 16:51 | 54.40279 | -31.53695 | 37647 ft | 478 kts | 76° |
| 2026-05-09 16:51 | 54.40932 | -31.44277 | 37644 ft | 478 kts | 76° |
| 2026-05-09 16:52 | 54.41833 | -31.31097 | 37636 ft | 477 kts | 76° |
| 2026-05-09 16:52 | 54.42473 | -31.21610 | 37636 ft | 477 kts | 76° |
| 2026-05-09 16:53 | 54.43226 | -31.10287 | 37647 ft | 477 kts | 76° |
| 2026-05-09 16:53 | 54.43965 | -30.99025 | 37641 ft | 477 kts | 76° |
| 2026-05-09 16:54 | 54.44696 | -30.87710 | 37648 ft | 476 kts | 77° |
| 2026-05-09 16:54 | 54.45416 | -30.76398 | 37642 ft | 476 kts | 77° |
| 2026-05-09 16:55 | 54.46126 | -30.65090 | 37649 ft | 476 kts | 77° |
| 2026-05-09 16:55 | 54.46825 | -30.53774 | 37647 ft | 476 kts | 77° |
| 2026-05-09 16:56 | 54.47513 | -30.42459 | 37639 ft | 476 kts | 77° |
| 2026-05-09 16:56 | 54.48192 | -30.31119 | 37650 ft | 475 kts | 77° |
| 2026-05-09 16:57 | 54.48858 | -30.19819 | 37656 ft | 475 kts | 77° |
| 2026-05-09 16:57 | 54.49515 | -30.08494 | 37652 ft | 475 kts | 77° |
| 2026-05-09 16:58 | 54.50147 | -29.97241 | 37647 ft | 476 kts | 78° |
| 2026-05-09 16:58 | 54.50630 | -29.85863 | 37647 ft | 476 kts | 79° |
| 2026-05-09 16:59 | 54.51049 | -29.74475 | 37654 ft | 476 kts | 79° |
| 2026-05-09 16:59 | 54.51467 | -29.63174 | 37648 ft | 475 kts | 79° |
| 2026-05-09 17:00 | 54.51891 | -29.51822 | 37660 ft | 475 kts | 79° |
| 2026-05-09 17:00 | 54.52310 | -29.40472 | 37655 ft | 474 kts | 79° |
| 2026-05-09 17:01 | 54.52719 | -29.29133 | 37646 ft | 474 kts | 79° |
| 2026-05-09 17:01 | 54.53116 | -29.17801 | 37657 ft | 473 kts | 79° |
| 2026-05-09 17:02 | 54.53501 | -29.06499 | 37662 ft | 473 kts | 79° |
| 2026-05-09 17:02 | 54.53876 | -28.95179 | 37661 ft | 473 kts | 79° |
| 2026-05-09 17:03 | 54.54240 | -28.83859 | 37660 ft | 473 kts | 79° |
| 2026-05-09 17:05 | 54.55588 | -28.38682 | 37665 ft | 472 kts | 79° |
| 2026-05-09 17:05 | 54.55899 | -28.27365 | 37659 ft | 472 kts | 79° |
| 2026-05-09 17:06 | 54.56199 | -28.16066 | 37654 ft | 472 kts | 80° |
| 2026-05-09 17:06 | 54.56488 | -28.04768 | 37659 ft | 472 kts | 80° |
| 2026-05-09 17:07 | 54.56767 | -27.93469 | 37652 ft | 472 kts | 80° |
| 2026-05-09 17:07 | 54.57035 | -27.82170 | 37659 ft | 472 kts | 80° |
| 2026-05-09 17:08 | 54.57292 | -27.70937 | 37656 ft | 472 kts | 80° |
| 2026-05-09 17:08 | 54.57659 | -27.53985 | 37644 ft | 472 kts | 80° |
| 2026-05-09 17:09 | 54.57890 | -27.42690 | 37661 ft | 472 kts | 80° |
| 2026-05-09 17:09 | 54.58111 | -27.31371 | 37641 ft | 471 kts | 81° |
| 2026-05-09 17:10 | 54.58321 | -27.20080 | 37660 ft | 471 kts | 81° |
| 2026-05-09 17:10 | 54.58522 | -27.08777 | 37647 ft | 472 kts | 81° |
| 2026-05-09 17:11 | 54.58711 | -26.97475 | 37661 ft | 471 kts | 81° |
| 2026-05-09 17:11 | 54.58889 | -26.86193 | 37644 ft | 471 kts | 81° |
| 2026-05-09 17:12 | 54.59057 | -26.74905 | 37658 ft | 471 kts | 81° |
| 2026-05-09 17:12 | 54.59215 | -26.63619 | 37642 ft | 470 kts | 81° |
| 2026-05-09 17:13 | 54.59360 | -26.52403 | 37659 ft | 470 kts | 81° |
| 2026-05-09 17:13 | 54.59497 | -26.41119 | 37640 ft | 470 kts | 81° |
| 2026-05-09 17:14 | 54.59623 | -26.29854 | 37657 ft | 470 kts | 81° |
| 2026-05-09 17:14 | 54.59738 | -26.18587 | 37640 ft | 470 kts | 82° |
| 2026-05-09 17:15 | 54.59843 | -26.07317 | 37658 ft | 470 kts | 82° |
| 2026-05-09 17:15 | 54.59937 | -25.96043 | 37638 ft | 469 kts | 82° |
| 2026-05-09 17:17 | 54.60210 | -25.51030 | 37635 ft | 469 kts | 82° |
| 2026-05-09 17:18 | 54.60252 | -25.39760 | 37652 ft | 469 kts | 82° |
| 2026-05-09 17:18 | 54.60284 | -25.28501 | 37629 ft | 469 kts | 83° |
| 2026-05-09 17:19 | 54.60305 | -25.17350 | 37650 ft | 469 kts | 83° |
| 2026-05-09 17:19 | 54.60316 | -25.06092 | 37631 ft | 469 kts | 83° |
| 2026-05-09 17:20 | 54.60316 | -24.94854 | 37647 ft | 468 kts | 83° |
| 2026-05-09 17:20 | 54.60306 | -24.83614 | 37634 ft | 468 kts | 83° |
| 2026-05-09 17:21 | 54.60286 | -24.72384 | 37644 ft | 468 kts | 83° |
| 2026-05-09 17:21 | 54.60255 | -24.61163 | 37631 ft | 468 kts | 83° |
| 2026-05-09 17:22 | 54.60214 | -24.49955 | 37652 ft | 467 kts | 83° |
| 2026-05-09 17:22 | 54.60162 | -24.38724 | 37627 ft | 467 kts | 83° |
| 2026-05-09 17:23 | 54.60100 | -24.27516 | 37635 ft | 467 kts | 84° |
| 2026-05-09 17:23 | 54.60029 | -24.16318 | 37621 ft | 467 kts | 84° |
| 2026-05-09 17:25 | 54.59751 | -23.82799 | 37626 ft | 466 kts | 84° |
| 2026-05-09 17:25 | 54.59638 | -23.71610 | 37621 ft | 466 kts | 84° |
| 2026-05-09 17:26 | 54.59514 | -23.60428 | 37639 ft | 466 kts | 84° |
| 2026-05-09 17:26 | 54.59380 | -23.49246 | 37611 ft | 466 kts | 84° |
| 2026-05-09 17:27 | 54.59236 | -23.38095 | 37625 ft | 465 kts | 84° |
| 2026-05-09 17:27 | 54.59083 | -23.26944 | 37614 ft | 466 kts | 84° |
| 2026-05-09 17:28 | 54.58918 | -23.15777 | 37623 ft | 465 kts | 84° |
| 2026-05-09 17:28 | 54.58743 | -23.04623 | 37607 ft | 465 kts | 84° |
| 2026-05-09 17:29 | 54.58559 | -22.93489 | 37630 ft | 465 kts | 84° |
| 2026-05-09 17:29 | 54.58365 | -22.82407 | 37624 ft | 465 kts | 84° |
| 2026-05-09 17:30 | 54.58160 | -22.71271 | 37620 ft | 465 kts | 85° |
| 2026-05-09 17:30 | 54.57945 | -22.60120 | 37604 ft | 464 kts | 85° |
| 2026-05-09 17:31 | 54.57719 | -22.48986 | 37618 ft | 464 kts | 85° |
| 2026-05-09 17:32 | 54.57113 | -22.21212 | 37630 ft | 464 kts | 85° |
| 2026-05-09 17:33 | 54.56851 | -22.10087 | 37619 ft | 464 kts | 85° |
| 2026-05-09 17:33 | 54.56579 | -21.98991 | 37151 ft | 461 kts | 83° |
| 2026-05-09 17:33 | 54.56436 | -21.93533 | 37378 ft | 452 kts | 83° |
| 2026-05-09 17:34 | 54.56296 | -21.88131 | 37489 ft | 451 kts | 83° |
| 2026-05-09 17:35 | 54.55431 | -21.55889 | 37607 ft | 446 kts | 83° |
| 2026-05-09 17:35 | 54.55279 | -21.50557 | 37605 ft | 446 kts | 83° |
| 2026-05-09 17:36 | 54.54968 | -21.39875 | 37611 ft | 447 kts | 83° |
| 2026-05-09 17:36 | 54.54648 | -21.29247 | 37611 ft | 447 kts | 83° |
| 2026-05-09 17:37 | 54.54316 | -21.18559 | 37604 ft | 447 kts | 83° |
| 2026-05-09 17:37 | 54.53974 | -21.07883 | 37604 ft | 446 kts | 83° |
| 2026-05-09 17:38 | 54.53681 | -20.98932 | 37602 ft | 447 kts | 84° |
| 2026-05-09 17:39 | 54.53142 | -20.82980 | 37597 ft | 447 kts | 84° |
| 2026-05-09 17:39 | 54.52769 | -20.72293 | 37597 ft | 447 kts | 84° |
| 2026-05-09 17:40 | 54.52388 | -20.61632 | 37595 ft | 447 kts | 84° |
| 2026-05-09 17:40 | 54.51997 | -20.50950 | 37597 ft | 447 kts | 84° |
| 2026-05-09 17:41 | 54.51595 | -20.40254 | 37590 ft | 447 kts | 84° |
| 2026-05-09 17:41 | 54.51184 | -20.29568 | 37593 ft | 448 kts | 84° |
| 2026-05-09 17:42 | 54.50764 | -20.18865 | 37595 ft | 448 kts | 84° |
| 2026-05-09 17:42 | 54.50335 | -20.08148 | 37581 ft | 449 kts | 84° |
| 2026-05-09 17:43 | 54.49543 | -19.97482 | 37580 ft | 459 kts | 92° |
| 2026-05-09 17:43 | 54.47758 | -19.86808 | 37583 ft | 466 kts | 97° |
| 2026-05-09 17:44 | 54.45825 | -19.76155 | 37578 ft | 467 kts | 97° |
| 2026-05-09 17:44 | 54.43900 | -19.65494 | 37582 ft | 467 kts | 97° |
| 2026-05-09 17:45 | 54.41982 | -19.54803 | 37575 ft | 467 kts | 97° |
| 2026-05-09 17:45 | 54.40065 | -19.44139 | 37574 ft | 468 kts | 97° |
| 2026-05-09 17:46 | 54.38138 | -19.33472 | 37570 ft | 468 kts | 98° |
| 2026-05-09 17:46 | 54.36196 | -19.22790 | 37567 ft | 468 kts | 98° |
| 2026-05-09 17:47 | 54.34260 | -19.12208 | 37565 ft | 469 kts | 98° |
| 2026-05-09 17:47 | 54.32300 | -19.01552 | 37561 ft | 469 kts | 98° |
| 2026-05-09 17:48 | 54.30328 | -18.90893 | 37557 ft | 469 kts | 98° |
| 2026-05-09 17:48 | 54.28343 | -18.80230 | 37556 ft | 470 kts | 98° |
| 2026-05-09 17:49 | 54.26351 | -18.69586 | 37556 ft | 470 kts | 98° |
| 2026-05-09 17:49 | 54.24345 | -18.58933 | 37554 ft | 470 kts | 98° |
| 2026-05-09 17:50 | 54.22340 | -18.48341 | 37550 ft | 471 kts | 99° |
| 2026-05-09 17:50 | 54.19289 | -18.32336 | 37534 ft | 472 kts | 99° |
| 2026-05-09 17:51 | 54.17241 | -18.21668 | 37537 ft | 472 kts | 99° |
| 2026-05-09 17:51 | 54.15195 | -18.11071 | 37538 ft | 473 kts | 99° |
| 2026-05-09 17:52 | 54.13128 | -18.00422 | 37534 ft | 473 kts | 99° |
| 2026-05-09 17:52 | 54.11050 | -17.89773 | 37538 ft | 474 kts | 99° |
| 2026-05-09 17:53 | 54.08955 | -17.79099 | 37539 ft | 474 kts | 100° |
| 2026-05-09 17:53 | 54.06851 | -17.68436 | 37531 ft | 475 kts | 100° |
| 2026-05-09 17:54 | 54.04736 | -17.57777 | 37526 ft | 476 kts | 100° |
| 2026-05-09 17:54 | 54.02605 | -17.47100 | 37522 ft | 476 kts | 100° |
| 2026-05-09 17:55 | 54.00482 | -17.36518 | 37520 ft | 476 kts | 100° |
| 2026-05-09 17:55 | 53.98328 | -17.25840 | 37520 ft | 477 kts | 101° |
| 2026-05-09 17:56 | 53.96163 | -17.15164 | 37513 ft | 478 kts | 101° |
| 2026-05-09 17:57 | 53.92896 | -16.99160 | 37509 ft | 478 kts | 101° |
| 2026-05-09 17:57 | 53.90703 | -16.88491 | 37510 ft | 479 kts | 101° |
| 2026-05-09 17:58 | 53.88499 | -16.77827 | 37506 ft | 479 kts | 101° |
| 2026-05-09 17:58 | 53.86282 | -16.67157 | 37501 ft | 480 kts | 101° |
| 2026-05-09 17:59 | 53.84068 | -16.56556 | 37501 ft | 480 kts | 102° |
| 2026-05-09 17:59 | 53.81830 | -16.45898 | 37499 ft | 481 kts | 102° |
| 2026-05-09 18:00 | 53.79581 | -16.35243 | 37498 ft | 481 kts | 102° |
| 2026-05-09 18:00 | 53.77321 | -16.24592 | 37493 ft | 481 kts | 102° |
| 2026-05-09 18:01 | 53.75065 | -16.14015 | 37477 ft | 481 kts | 102° |
| 2026-05-09 18:01 | 53.72773 | -16.03323 | 37484 ft | 482 kts | 103° |
| 2026-05-09 18:02 | 53.70495 | -15.92754 | 37480 ft | 482 kts | 103° |
| 2026-05-09 18:02 | 53.68193 | -15.82130 | 37477 ft | 482 kts | 103° |
| 2026-05-09 18:03 | 53.65884 | -15.71529 | 37469 ft | 481 kts | 103° |
| 2026-05-09 18:03 | 53.63565 | -15.60935 | 37470 ft | 481 kts | 103° |
| 2026-05-09 18:04 | 53.61238 | -15.50354 | 37466 ft | 481 kts | 104° |
| 2026-05-09 18:04 | 53.58900 | -15.39783 | 37460 ft | 481 kts | 104° |
| 2026-05-09 18:05 | 53.56573 | -15.29308 | 37460 ft | 481 kts | 104° |
| 2026-05-09 18:05 | 53.54220 | -15.18768 | 37459 ft | 481 kts | 104° |
| 2026-05-09 18:06 | 53.51860 | -15.08231 | 37463 ft | 481 kts | 103° |
| 2026-05-09 18:06 | 53.50298 | -14.97455 | 37459 ft | 471 kts | 92° |
| 2026-05-09 18:07 | 53.49937 | -14.86577 | 37456 ft | 464 kts | 84° |
| 2026-05-09 18:07 | 53.50016 | -14.75724 | 37450 ft | 465 kts | 84° |
| 2026-05-09 18:08 | 53.50078 | -14.64843 | 37444 ft | 466 kts | 84° |
| 2026-05-09 18:08 | 53.50098 | -14.53937 | 37450 ft | 467 kts | 84° |
| 2026-05-09 18:09 | 53.50096 | -14.43105 | 37445 ft | 467 kts | 85° |
| 2026-05-09 18:09 | 53.50085 | -14.32177 | 37432 ft | 468 kts | 85° |
| 2026-05-09 18:10 | 53.50066 | -14.21221 | 37426 ft | 470 kts | 85° |
| 2026-05-09 18:10 | 53.50039 | -14.10222 | 37426 ft | 471 kts | 85° |
| 2026-05-09 18:11 | 53.49759 | -13.99196 | 37423 ft | 476 kts | 92° |
| 2026-05-09 18:11 | 53.48418 | -13.88301 | 37435 ft | 481 kts | 99° |
| 2026-05-09 18:12 | 53.46783 | -13.77373 | 37417 ft | 483 kts | 99° |
| 2026-05-09 18:12 | 53.45151 | -13.66433 | 37419 ft | 483 kts | 99° |
| 2026-05-09 18:13 | 53.43536 | -13.55488 | 37413 ft | 483 kts | 99° |
| 2026-05-09 18:13 | 53.41924 | -13.44549 | 37410 ft | 484 kts | 99° |
| 2026-05-09 18:14 | 53.40299 | -13.33593 | 37408 ft | 484 kts | 100° |
| 2026-05-09 18:14 | 53.38661 | -13.22624 | 37406 ft | 485 kts | 100° |
| 2026-05-09 18:15 | 53.37021 | -13.11731 | 37400 ft | 486 kts | 100° |
| 2026-05-09 18:15 | 53.35358 | -13.00762 | 37401 ft | 486 kts | 101° |
| 2026-05-09 18:16 | 53.33683 | -12.89784 | 37395 ft | 487 kts | 101° |
| 2026-05-09 18:16 | 53.31996 | -12.78808 | 37387 ft | 487 kts | 101° |
| 2026-05-09 18:17 | 53.30297 | -12.67824 | 37389 ft | 488 kts | 101° |
| 2026-05-09 18:17 | 53.28588 | -12.56853 | 37384 ft | 488 kts | 101° |
| 2026-05-09 18:18 | 53.26865 | -12.45858 | 37381 ft | 489 kts | 101° |
| 2026-05-09 18:18 | 53.25133 | -12.34885 | 37377 ft | 489 kts | 101° |
| 2026-05-09 18:19 | 53.23389 | -12.23910 | 37378 ft | 489 kts | 101° |
| 2026-05-09 18:19 | 53.20756 | -12.07465 | 37372 ft | 492 kts | 102° |
| 2026-05-09 18:20 | 53.18976 | -11.96444 | 37363 ft | 492 kts | 102° |
| 2026-05-09 18:20 | 53.17191 | -11.85470 | 37358 ft | 489 kts | 102° |
| 2026-05-09 18:21 | 53.15404 | -11.74553 | 37353 ft | 488 kts | 102° |
| 2026-05-09 18:21 | 53.13607 | -11.63636 | 37360 ft | 490 kts | 102° |
| 2026-05-09 18:22 | 53.11797 | -11.52692 | 37355 ft | 495 kts | 102° |
| 2026-05-09 18:22 | 53.09952 | -11.41631 | 37344 ft | 496 kts | 102° |
| 2026-05-09 18:23 | 53.08101 | -11.30622 | 37337 ft | 492 kts | 102° |
| 2026-05-09 18:23 | 53.06253 | -11.19696 | 37323 ft | 489 kts | 103° |
| 2026-05-09 18:24 | 53.04405 | -11.08804 | 37343 ft | 489 kts | 103° |
| 2026-05-09 18:25 | 53.01603 | -10.92431 | 37335 ft | 493 kts | 103° |
| 2026-05-09 18:25 | 53.00035 | -10.83332 | 37329 ft | 494 kts | 103° |
| 2026-05-09 18:26 | 52.98131 | -10.72380 | 37318 ft | 494 kts | 103° |
| 2026-05-09 18:26 | 52.95908 | -10.59658 | 37306 ft | 492 kts | 103° |
| 2026-05-09 18:27 | 52.93997 | -10.48791 | 37307 ft | 490 kts | 104° |
| 2026-05-09 18:27 | 52.92403 | -10.39773 | 37303 ft | 491 kts | 104° |
| 2026-05-09 18:28 | 52.90471 | -10.28895 | 37301 ft | 492 kts | 104° |
| 2026-05-09 18:28 | 52.88522 | -10.17996 | 37297 ft | 494 kts | 104° |
| 2026-05-09 18:29 | 52.86559 | -10.07085 | 37295 ft | 495 kts | 104° |
| 2026-05-09 18:29 | 52.84581 | -9.96161 | 37283 ft | 494 kts | 104° |
| 2026-05-09 18:30 | 52.82600 | -9.85290 | 37280 ft | 493 kts | 104° |
| 2026-05-09 18:30 | 52.80611 | -9.74435 | 37277 ft | 493 kts | 105° |
| 2026-05-09 18:31 | 52.78627 | -9.63661 | 37271 ft | 493 kts | 105° |
| 2026-05-09 18:31 | 52.76619 | -9.52824 | 37267 ft | 493 kts | 105° |
| 2026-05-09 18:32 | 52.74603 | -9.42010 | 37259 ft | 493 kts | 105° |
| 2026-05-09 18:32 | 52.72576 | -9.31203 | 37252 ft | 493 kts | 105° |
| 2026-05-09 18:33 | 52.70535 | -9.20374 | 37243 ft | 495 kts | 106° |
| 2026-05-09 18:33 | 52.68475 | -9.09512 | 37245 ft | 498 kts | 106° |
| 2026-05-09 18:34 | 52.66396 | -8.98609 | 37241 ft | 499 kts | 106° |
| 2026-05-09 18:34 | 52.64315 | -8.87760 | 37237 ft | 498 kts | 106° |
| 2026-05-09 18:35 | 52.62218 | -8.76900 | 37241 ft | 497 kts | 107° |
| 2026-05-09 18:35 | 52.60111 | -8.66044 | 37238 ft | 497 kts | 107° |
| 2026-05-09 18:36 | 52.58001 | -8.55232 | 37238 ft | 496 kts | 107° |
| 2026-05-09 18:36 | 52.55877 | -8.44411 | 37239 ft | 497 kts | 107° |
| 2026-05-09 18:37 | 52.53746 | -8.33611 | 37232 ft | 498 kts | 107° |
| 2026-05-09 18:37 | 52.51614 | -8.22873 | 37226 ft | 497 kts | 108° |
| 2026-05-09 18:38 | 52.49471 | -8.12135 | 37227 ft | 494 kts | 108° |
| 2026-05-09 18:38 | 52.47323 | -8.01427 | 37224 ft | 494 kts | 108° |
| 2026-05-09 18:40 | 52.38578 | -7.58439 | 37213 ft | 498 kts | 108° |
| 2026-05-09 18:41 | 52.36367 | -7.47713 | 37210 ft | 496 kts | 109° |
| 2026-05-09 18:41 | 52.34167 | -7.37104 | 37208 ft | 494 kts | 109° |
| 2026-05-09 18:42 | 52.31949 | -7.26459 | 37211 ft | 493 kts | 109° |
| 2026-05-09 18:42 | 52.29728 | -7.15860 | 37211 ft | 493 kts | 109° |
| 2026-05-09 18:43 | 52.27498 | -7.05272 | 37213 ft | 493 kts | 109° |
| 2026-05-09 18:43 | 52.25271 | -6.94750 | 37212 ft | 493 kts | 109° |
| 2026-05-09 18:44 | 52.23014 | -6.84150 | 37211 ft | 494 kts | 109° |
| 2026-05-09 18:44 | 52.20744 | -6.73538 | 37211 ft | 496 kts | 109° |
| 2026-05-09 18:45 | 52.18460 | -6.62917 | 37204 ft | 495 kts | 109° |
| 2026-05-09 18:45 | 52.16172 | -6.52332 | 37201 ft | 495 kts | 109° |
| 2026-05-09 18:46 | 52.13893 | -6.41841 | 37201 ft | 494 kts | 109° |
| 2026-05-09 18:46 | 52.11598 | -6.31331 | 37193 ft | 492 kts | 110° |
| 2026-05-09 18:47 | 52.09303 | -6.20872 | 37195 ft | 491 kts | 110° |
| 2026-05-09 18:47 | 52.06992 | -6.10385 | 37201 ft | 494 kts | 110° |
| 2026-05-09 18:48 | 52.04506 | -5.99941 | 37188 ft | 498 kts | 114° |
| 2026-05-09 18:48 | 52.01607 | -5.89689 | 37184 ft | 499 kts | 115° |
| 2026-05-09 18:49 | 51.98679 | -5.79492 | 37178 ft | 497 kts | 115° |
| 2026-05-09 18:49 | 51.95804 | -5.69406 | 37172 ft | 494 kts | 115° |
| 2026-05-09 18:50 | 51.92928 | -5.59299 | 37175 ft | 493 kts | 115° |
| 2026-05-09 18:50 | 51.90047 | -5.49214 | 37172 ft | 492 kts | 115° |
| 2026-05-09 18:51 | 51.87159 | -5.39155 | 37164 ft | 493 kts | 116° |
| 2026-05-09 18:51 | 51.84270 | -5.29140 | 37163 ft | 494 kts | 116° |
| 2026-05-09 18:52 | 51.81352 | -5.19063 | 37155 ft | 495 kts | 116° |
| 2026-05-09 18:52 | 51.78424 | -5.08983 | 37152 ft | 496 kts | 116° |
| 2026-05-09 18:53 | 51.75573 | -4.98791 | 37141 ft | 498 kts | 114° |
| 2026-05-09 18:53 | 51.72898 | -4.88446 | 37132 ft | 500 kts | 114° |
| 2026-05-09 18:54 | 51.70227 | -4.78168 | 37132 ft | 498 kts | 114° |
| 2026-05-09 18:54 | 51.67520 | -4.67942 | 37121 ft | 494 kts | 115° |
| 2026-05-09 18:55 | 51.64809 | -4.57798 | 37124 ft | 492 kts | 115° |
| 2026-05-09 18:55 | 51.62092 | -4.47671 | 37121 ft | 492 kts | 115° |
| 2026-05-09 18:56 | 51.59369 | -4.37551 | 37121 ft | 494 kts | 115° |
| 2026-05-09 18:56 | 51.56623 | -4.27389 | 37121 ft | 496 kts | 115° |
| 2026-05-09 18:57 | 51.54535 | -4.18777 | 37109 ft | 499 kts | 109° |
| 2026-05-09 18:57 | 51.53082 | -4.08262 | 37112 ft | 499 kts | 101° |
| 2026-05-09 18:58 | 51.51951 | -3.97289 | 37102 ft | 497 kts | 101° |
| 2026-05-09 18:58 | 51.50792 | -3.86862 | 37097 ft | 496 kts | 102° |
| 2026-05-09 18:59 | 51.49515 | -3.75965 | 37092 ft | 497 kts | 102° |
| 2026-05-09 18:59 | 51.48231 | -3.65104 | 37082 ft | 498 kts | 102° |
| 2026-05-09 19:00 | 51.47425 | -3.55506 | 37080 ft | 499 kts | 97° |
| 2026-05-09 19:00 | 51.46510 | -3.38870 | 37076 ft | 499 kts | 97° |
| 2026-05-09 19:01 | 51.45876 | -3.27798 | 37014 ft | 495 kts | 97° |
| 2026-05-09 19:01 | 51.45550 | -3.22347 | 36692 ft | 487 kts | 97° |
| 2026-05-09 19:01 | 51.45231 | -3.17085 | 36051 ft | 485 kts | 98° |
| 2026-05-09 19:02 | 51.44900 | -3.11732 | 35147 ft | 490 kts | 98° |
| 2026-05-09 19:02 | 51.44556 | -3.06206 | 34195 ft | 495 kts | 98° |
| 2026-05-09 19:02 | 51.44215 | -3.00767 | 33139 ft | 498 kts | 98° |
| 2026-05-09 19:02 | 51.43867 | -2.95232 | 32081 ft | 500 kts | 98° |
| 2026-05-09 19:03 | 51.43516 | -2.89681 | 31039 ft | 501 kts | 98° |
| 2026-05-09 19:03 | 51.43162 | -2.84114 | 29976 ft | 502 kts | 98° |
| 2026-05-09 19:03 | 51.42804 | -2.78533 | 28730 ft | 503 kts | 98° |
| 2026-05-09 19:03 | 51.42444 | -2.72965 | 27486 ft | 503 kts | 98° |
| 2026-05-09 19:04 | 51.42081 | -2.67375 | 26233 ft | 503 kts | 98° |
| 2026-05-09 19:04 | 51.41715 | -2.61796 | 24944 ft | 504 kts | 97° |
| 2026-05-09 19:04 | 51.41362 | -2.56403 | 23708 ft | 471 kts | 97° |
| 2026-05-09 19:04 | 51.41019 | -2.51225 | 22058 ft | 461 kts | 97° |
| 2026-05-09 19:05 | 51.40691 | -2.46359 | 21174 ft | 429 kts | 97° |
| 2026-05-09 19:05 | 51.40388 | -2.41706 | 20630 ft | 417 kts | 98° |
| 2026-05-09 19:05 | 51.40069 | -2.37052 | 20426 ft | 423 kts | 98° |
| 2026-05-09 19:05 | 51.39742 | -2.32346 | 20156 ft | 424 kts | 98° |
| 2026-05-09 19:06 | 51.39416 | -2.27650 | 19881 ft | 423 kts | 98° |
| 2026-05-09 19:06 | 51.39092 | -2.22986 | 19618 ft | 421 kts | 98° |
| 2026-05-09 19:06 | 51.38769 | -2.18335 | 19339 ft | 419 kts | 98° |
| 2026-05-09 19:06 | 51.38445 | -2.13695 | 19079 ft | 418 kts | 98° |
| 2026-05-09 19:07 | 51.38121 | -2.09074 | 18818 ft | 416 kts | 98° |
| 2026-05-09 19:07 | 51.37799 | -2.04489 | 18547 ft | 415 kts | 98° |
| 2026-05-09 19:07 | 51.37472 | -1.99898 | 18278 ft | 413 kts | 98° |
| 2026-05-09 19:07 | 51.37149 | -1.95396 | 17972 ft | 411 kts | 98° |
| 2026-05-09 19:08 | 51.36822 | -1.90861 | 17676 ft | 409 kts | 98° |
| 2026-05-09 19:08 | 51.36495 | -1.86355 | 17372 ft | 404 kts | 98° |
| 2026-05-09 19:08 | 51.36172 | -1.81920 | 17072 ft | 399 kts | 98° |
| 2026-05-09 19:08 | 51.35851 | -1.77521 | 16782 ft | 397 kts | 98° |
| 2026-05-09 19:09 | 51.35529 | -1.73144 | 16494 ft | 395 kts | 98° |
| 2026-05-09 19:09 | 51.35206 | -1.68766 | 16209 ft | 394 kts | 98° |
| 2026-05-09 19:09 | 51.34886 | -1.64440 | 15927 ft | 392 kts | 98° |
| 2026-05-09 19:09 | 51.34564 | -1.60119 | 15619 ft | 390 kts | 98° |
| 2026-05-09 19:10 | 51.34241 | -1.55815 | 15173 ft | 389 kts | 98° |
| 2026-05-09 19:10 | 51.33924 | -1.51584 | 14737 ft | 386 kts | 98° |
| 2026-05-09 19:10 | 51.33607 | -1.47338 | 14298 ft | 382 kts | 98° |
| 2026-05-09 19:10 | 51.33293 | -1.43143 | 13868 ft | 378 kts | 98° |
| 2026-05-09 19:11 | 51.32979 | -1.38988 | 13385 ft | 375 kts | 98° |
| 2026-05-09 19:11 | 51.32667 | -1.34864 | 12905 ft | 372 kts | 98° |
| 2026-05-09 19:11 | 51.32355 | -1.30765 | 12440 ft | 370 kts | 97° |
| 2026-05-09 19:11 | 51.32045 | -1.26695 | 11998 ft | 368 kts | 97° |
| 2026-05-09 19:12 | 51.31735 | -1.22647 | 11542 ft | 366 kts | 97° |
| 2026-05-09 19:12 | 51.31424 | -1.18619 | 11081 ft | 363 kts | 97° |
| 2026-05-09 19:12 | 51.31176 | -1.14608 | 10646 ft | 361 kts | 93° |
| 2026-05-09 19:12 | 51.31119 | -1.10607 | 10212 ft | 358 kts | 90° |
| 2026-05-09 19:13 | 51.31125 | -1.06648 | 9759 ft | 355 kts | 90° |
| 2026-05-09 19:13 | 51.31131 | -1.02719 | 9278 ft | 351 kts | 90° |
| 2026-05-09 19:13 | 51.31121 | -0.98858 | 8813 ft | 348 kts | 90° |
| 2026-05-09 19:13 | 51.31098 | -0.94979 | 8350 ft | 345 kts | 90° |
| 2026-05-09 19:14 | 51.31096 | -0.91171 | 7866 ft | 335 kts | 85° |
| 2026-05-09 19:14 | 51.31612 | -0.87844 | 7388 ft | 307 kts | 62° |
| 2026-05-09 19:14 | 51.32378 | -0.86028 | 7059 ft | 290 kts | 46° |
| 2026-05-09 19:14 | 51.33968 | -0.84293 | 6604 ft | 269 kts | 19° |
| 2026-05-09 19:15 | 51.36358 | -0.83754 | 6003 ft | 260 kts | 2° |
| 2026-05-09 19:15 | 51.38166 | -0.83721 | 5548 ft | 259 kts | 1° |
| 2026-05-09 19:15 | 51.39970 | -0.83728 | 5148 ft | 257 kts | 1° |
| 2026-05-09 19:15 | 51.41732 | -0.83743 | 5019 ft | 254 kts | 1° |
| 2026-05-09 19:16 | 51.42955 | -0.83754 | 4914 ft | 264 kts | 1° |
| 2026-05-09 19:16 | 51.44771 | -0.83773 | 4559 ft | 264 kts | 2° |
| 2026-05-09 19:16 | 51.46515 | -0.83153 | 4188 ft | 249 kts | 31° |
| 2026-05-09 19:16 | 51.47665 | -0.81341 | 3989 ft | 223 kts | 63° |
| 2026-05-09 19:17 | 51.47930 | -0.79036 | 3773 ft | 203 kts | 95° |
| 2026-05-09 19:17 | 51.47741 | -0.76907 | 3582 ft | 183 kts | 93° |
| 2026-05-09 19:17 | 51.47678 | -0.74964 | 3322 ft | 167 kts | 89° |
| 2026-05-09 19:17 | 51.47668 | -0.73156 | 3100 ft | 160 kts | 88° |
| 2026-05-09 19:18 | 51.47669 | -0.71392 | 2892 ft | 156 kts | 88° |
| 2026-05-09 19:18 | 51.47674 | -0.69661 | 2671 ft | 154 kts | 89° |
| 2026-05-09 19:18 | 51.47679 | -0.67942 | 2503 ft | 154 kts | 88° |
| 2026-05-09 19:18 | 51.47685 | -0.66245 | 2270 ft | 148 kts | 89° |
| 2026-05-09 19:19 | 51.47691 | -0.64648 | 2069 ft | 140 kts | 89° |
| 2026-05-09 19:19 | 51.47696 | -0.63110 | 1909 ft | 136 kts | 89° |
| 2026-05-09 19:19 | 51.47701 | -0.61595 | 1716 ft | 137 kts | 89° |
| 2026-05-09 19:19 | 51.47707 | -0.60056 | 1525 ft | 138 kts | 90° |
| 2026-05-09 19:20 | 51.47713 | -0.58527 | 1339 ft | 138 kts | 90° |
| 2026-05-09 19:20 | 51.47718 | -0.56958 | 1141 ft | 140 kts | 90° |
| 2026-05-09 19:20 | 51.47723 | -0.55440 | 954 ft | 134 kts | 89° |
| 2026-05-09 19:20 | 51.47738 | -0.53934 | 741 ft | 138 kts | 90° |
| 2026-05-09 19:21 | 51.47739 | -0.52361 | 591 ft | 140 kts | 89° |
| 2026-05-09 19:21 | 51.47748 | -0.50833 | 407 ft | 135 kts | 92° |
| 2026-05-09 19:21 | 51.47752 | -0.49328 | 222 ft | 135 kts | 89° |
| 2026-05-09 19:21 | 51.47756 | -0.47838 | 97 ft | 129 kts | 91° |
| 2026-05-09 19:22 | 51.47757 | -0.46601 | 98 ft | 86 kts | 90° |
| 2026-05-09 19:22 | 51.47761 | -0.45943 | 93 ft | 36 kts | 89° |
| 2026-05-09 19:22 | 51.47760 | -0.45606 | 93 ft | 17 kts | 94° |
| 2026-05-09 19:22 | 51.47728 | -0.45496 | 95 ft | 10 kts | 136° |
| 2026-05-09 19:23 | 51.47661 | -0.45469 | 91 ft | 10 kts | 178° |
| 2026-05-09 19:23 | 51.47590 | -0.45468 | 92 ft | 10 kts | 179° |
| 2026-05-09 19:23 | 51.47523 | -0.45479 | 96 ft | 8 kts | 210° |
| 2026-05-09 19:23 | 51.47508 | -0.45561 | 95 ft | 8 kts | 269° |
| 2026-05-09 19:24 | 51.47507 | -0.45663 | 95 ft | 10 kts | 271° |
| 2026-05-09 19:24 | 51.47517 | -0.45823 | 92 ft | 18 kts | 272° |
| 2026-05-09 19:24 | 51.47516 | -0.46023 | 92 ft | 18 kts | 270° |
| 2026-05-09 19:24 | 51.47516 | -0.46219 | 92 ft | 17 kts | 269° |
| 2026-05-09 19:25 | 51.47515 | -0.46414 | 92 ft | 17 kts | 270° |
| 2026-05-09 19:25 | 51.47501 | -0.46526 | 95 ft | 7 kts | 209° |
| 2026-05-09 19:25 | 51.47452 | -0.46522 | 94 ft | 8 kts | 164° |
| 2026-05-09 19:25 | 51.47429 | -0.46512 | 94 ft | 0 kts | 164° |